Accueil
METAR-TAF:

METAR-TAF

Aéroports :

NWS Office

Majuro, Îles Marshall

latitude: 07-05N, longitude: 171-12E, altitude: 4 m

Observation

Le bulletin a été fait il y a 19 minutes, à 21:52 UTC
Vent 8 kt de sud
Température 29°C
Humidité 84%
Pression 1008 hPa
Visibilité: 22.5 km
Nuages épars à une hauteur de 1400 ft, Cumulus congestus.
Nuages fragmentés à une hauteur de 4500 ft
Nuages fragmentés à une hauteur de 12000 ft
Ciel couvert à une hauteur de 30000 ft

METAR: PKMR 232152Z 17008KT 14SM SCT014TCU BKN045 BKN120 OVC300 29/26 A2976 RMK RAE19 TCU NE-E AND W SLP080 T02870260

Heure: 10:11 (22:11 UTC)


TAF: absent

Observations et prévisions météorologiques de plus de 4000 aéroports (messages METAR et TAF).

Les stations disponibles sont représentées par des disques jaunes et rouges sur la carte.

Passer la souris dessus pour voir le nom de la station.

Cliquer dessus pour voir les observations et prévisions météorologiques.

Pour changer de carte: cliquez sur les boutons verts avec une croix noire pour zoomer, sur le bouton vert avec un tiret pour effectuer un zoom arrière, ou sur les flèches vertes pour les cartes adjacentes.


METAR-TAF: